createdAt,value
2019-04-25T00:02:24.934Z,17.97
2019-04-25T00:04:56.002Z,18.87
2019-04-25T00:07:27.038Z,18.00
2019-04-25T00:09:58.031Z,19.20
2019-04-25T00:12:29.219Z,17.97
2019-04-25T00:15:01.837Z,17.43
2019-04-25T00:17:34.139Z,18.67
2019-04-25T00:20:06.539Z,19.23
2019-04-25T00:22:49.697Z,19.30
2019-04-25T00:25:51.314Z,19.57
2019-04-25T00:28:22.615Z,20.13
2019-04-25T00:30:53.677Z,19.03
2019-04-25T00:33:24.768Z,19.33
2019-04-25T00:35:55.931Z,19.67
2019-04-25T00:38:26.941Z,17.60
2019-04-25T00:40:58.026Z,18.67
2019-04-25T00:43:29.028Z,18.73
2019-04-25T00:46:01.486Z,19.63
2019-04-25T00:48:32.655Z,19.90
2019-04-25T00:51:03.763Z,20.80
2019-04-25T00:53:34.999Z,19.23
2019-04-25T00:56:05.994Z,20.20
2019-04-25T00:58:45.201Z,20.03
2019-04-25T01:01:39.091Z,20.07
2019-04-25T01:04:10.151Z,18.93
2019-04-25T01:06:41.674Z,20.43
2019-04-25T01:09:16.314Z,21.07
2019-04-25T01:11:47.963Z,21.27
2019-04-25T01:14:19.108Z,20.77
2019-04-25T01:16:51.223Z,20.57
2019-04-25T01:19:23.445Z,21.53
2019-04-25T01:21:55.219Z,20.97
2019-04-25T01:24:27.683Z,22.63
2019-04-25T01:26:58.779Z,22.33
2019-04-25T01:29:30.207Z,22.57
2019-04-25T01:32:00.941Z,21.80
2019-04-25T01:34:50.880Z,21.13
2019-04-25T01:37:36.691Z,22.43
2019-04-25T01:40:27.333Z,22.40
2019-04-25T01:43:09.423Z,22.23
2019-04-25T01:45:40.565Z,21.37
2019-04-25T01:48:13.207Z,22.23
2019-04-25T01:50:44.302Z,22.23
2019-04-25T01:53:15.319Z,23.83
2019-04-25T01:55:55.922Z,23.50
2019-04-25T01:58:23.378Z,23.37
2019-04-25T02:00:56.053Z,23.17
2019-04-25T02:03:27.361Z,22.60
2019-04-25T02:05:59.656Z,23.37
2019-04-25T02:08:30.655Z,23.10
2019-04-25T02:11:20.579Z,23.97
2019-04-25T02:13:53.140Z,23.53
2019-04-25T02:16:24.613Z,23.73
2019-04-25T02:18:56.391Z,23.20
2019-04-25T02:21:27.435Z,22.73
2019-04-25T02:23:58.496Z,23.30
2019-04-25T02:26:29.531Z,23.50
2019-04-25T02:29:00.596Z,23.67
2019-04-25T02:31:30.968Z,23.10
2019-04-25T02:34:03.524Z,23.43
2019-04-25T02:36:34.855Z,23.77
2019-04-25T02:39:14.750Z,24.17
2019-04-25T02:41:45.160Z,23.10
2019-04-25T02:44:16.165Z,24.17
2019-04-25T02:47:17.853Z,24.23
2019-04-25T02:50:10.601Z,24.23
2019-04-25T02:52:47.964Z,23.10
2019-04-25T02:55:30.981Z,23.23
2019-04-25T02:57:54.205Z,23.33
2019-04-25T03:00:27.642Z,24.63
2019-04-25T03:02:59.191Z,24.80
2019-04-25T03:05:30.659Z,24.37
2019-04-25T03:08:02.762Z,25.50
2019-04-25T03:10:35.573Z,24.20
2019-04-25T03:13:10.263Z,24.70
2019-04-25T03:15:39.492Z,22.73
2019-04-25T03:18:12.443Z,23.70
2019-04-25T03:21:01.271Z,23.50
2019-04-25T03:23:42.546Z,24.07
2019-04-25T03:26:13.526Z,25.07
2019-04-25T03:28:44.816Z,25.13
2019-04-25T03:31:22.399Z,23.93
2019-04-25T03:33:47.931Z,24.43
2019-04-25T03:36:18.803Z,24.23
2019-04-25T03:38:49.803Z,24.43
2019-04-25T03:41:20.815Z,24.87
2019-04-25T03:43:51.843Z,24.47
2019-04-25T03:46:23.331Z,25.50
2019-04-25T03:48:54.455Z,25.37
2019-04-25T03:51:25.447Z,25.17
2019-04-25T03:53:56.487Z,24.00
2019-04-25T03:56:27.555Z,24.70
2019-04-25T03:58:58.595Z,23.67
2019-04-25T04:01:29.681Z,24.17
2019-04-25T04:04:00.707Z,24.10
2019-04-25T04:06:34.029Z,23.77
2019-04-25T04:09:07.872Z,25.60
2019-04-25T04:11:39.339Z,24.23
2019-04-25T04:14:10.322Z,24.93
2019-04-25T04:17:00.763Z,23.00
2019-04-25T04:19:33.834Z,24.87
2019-04-25T04:22:16.202Z,24.10
2019-04-25T04:24:50.879Z,23.67
2019-04-25T04:27:21.963Z,24.20
2019-04-25T04:29:54.262Z,24.53
2019-04-25T04:32:25.407Z,23.83
2019-04-25T04:34:56.400Z,23.97
2019-04-25T04:37:27.416Z,23.03
2019-04-25T04:39:58.428Z,22.77
2019-04-25T04:42:29.435Z,22.60
2019-04-25T04:45:00.535Z,23.27
2019-04-25T04:47:33.273Z,22.17
2019-04-25T04:50:04.586Z,23.53
2019-04-25T04:52:35.587Z,21.80
2019-04-25T04:55:09.785Z,21.73
2019-04-25T04:58:04.499Z,21.80
2019-04-25T05:00:35.378Z,22.20
2019-04-25T05:03:15.797Z,20.37
2019-04-25T05:06:04.103Z,22.07
2019-04-25T05:08:43.470Z,20.67
2019-04-25T05:11:15.520Z,20.60
2019-04-25T05:13:48.945Z,20.90
2019-04-25T05:16:19.968Z,20.47
2019-04-25T05:18:50.484Z,22.63
2019-04-25T05:21:21.295Z,21.03
2019-04-25T05:23:51.640Z,19.70
2019-04-25T05:26:24.659Z,19.80
2019-04-25T05:28:55.123Z,19.40
2019-04-25T05:31:38.303Z,20.27
2019-04-25T05:34:08.639Z,19.00
2019-04-25T05:36:39.497Z,20.43
2019-04-25T05:39:11.503Z,19.27
2019-04-25T05:42:02.199Z,19.67
2019-04-25T05:44:34.343Z,20.07
2019-04-25T05:47:05.623Z,19.50
2019-04-25T05:49:36.623Z,19.30
2019-04-25T05:52:07.699Z,19.50
2019-04-25T05:54:39.162Z,19.67
2019-04-25T05:57:11.277Z,18.70
2019-04-25T05:59:43.654Z,19.10
2019-04-25T06:02:15.472Z,18.77
2019-04-25T06:04:48.372Z,16.77
2019-04-25T06:07:19.747Z,17.50
2019-04-25T06:10:09.903Z,16.97
2019-04-25T06:12:55.517Z,16.63
2019-04-25T06:15:28.947Z,16.00
2019-04-25T06:18:15.465Z,15.97
2019-04-25T06:20:46.660Z,16.40
2019-04-25T06:23:36.589Z,15.50
2019-04-25T06:26:19.116Z,15.33
2019-04-25T06:28:52.006Z,15.20
2019-04-25T06:31:13.782Z,14.80
2019-04-25T06:33:44.060Z,15.50
2019-04-25T06:36:14.887Z,14.73
2019-04-25T06:38:45.947Z,14.10
2019-04-25T06:41:16.994Z,14.63
2019-04-25T06:43:49.583Z,13.30
2019-04-25T06:46:38.244Z,13.30
2019-04-25T06:49:20.303Z,13.50
2019-04-25T06:51:54.943Z,14.25
2019-04-25T06:54:27.848Z,14.35
2019-04-25T06:56:59.204Z,13.68
2019-04-25T06:59:30.184Z,12.95
2019-04-25T07:02:00.234Z,13.93
2019-04-25T07:04:31.315Z,13.00
2019-04-25T07:07:10.685Z,12.60
2019-04-25T07:09:39.076Z,12.25
2019-04-25T07:12:10.587Z,12.00
2019-04-25T07:14:41.399Z,12.07
2019-04-25T07:17:14.346Z,11.73
2019-04-25T07:19:46.103Z,12.05
2019-04-25T07:22:17.675Z,12.20
2019-04-25T07:24:49.352Z,12.00
2019-04-25T07:27:49.275Z,11.88
2019-04-25T07:30:51.534Z,12.65
2019-04-25T07:33:20.695Z,12.75
2019-04-25T07:35:55.213Z,11.60
2019-04-25T07:38:25.709Z,11.97
2019-04-25T07:40:56.711Z,12.30
2019-04-25T07:43:28.162Z,12.10
2019-04-25T07:45:59.805Z,12.47
2019-04-25T07:48:33.667Z,12.05
2019-04-25T07:51:04.787Z,12.05
2019-04-25T07:53:37.506Z,12.85
2019-04-25T07:56:09.511Z,13.20
2019-04-25T07:58:49.217Z,12.05
2019-04-25T08:01:16.136Z,14.30
2019-04-25T08:03:47.775Z,12.78
2019-04-25T08:06:22.026Z,12.25
2019-04-25T08:08:54.577Z,12.65
2019-04-25T08:11:25.743Z,12.30
2019-04-25T08:14:17.149Z,11.80
2019-04-25T08:16:51.361Z,12.90
2019-04-25T08:19:23.724Z,11.65
2019-04-25T08:21:56.199Z,11.28
2019-04-25T08:24:29.205Z,12.18
2019-04-25T08:27:00.880Z,14.00
2019-04-25T08:29:36.416Z,10.65
2019-04-25T08:32:07.760Z,10.15
2019-04-25T08:34:39.335Z,11.22
2019-04-25T08:37:18.162Z,10.08
2019-04-25T08:39:45.277Z,10.08
2019-04-25T08:42:16.811Z,9.80
2019-04-25T08:44:47.754Z,12.25
2019-04-25T08:47:18.906Z,10.67
2019-04-25T08:50:01.215Z,10.65
2019-04-25T08:52:35.049Z,10.63
2019-04-25T08:55:31.492Z,9.67
2019-04-25T08:58:23.641Z,10.90
2019-04-25T09:01:20.260Z,9.87
2019-04-25T09:03:57.184Z,10.23
2019-04-25T09:06:28.564Z,10.40
2019-04-25T09:08:59.852Z,9.70
2019-04-25T09:11:32.408Z,10.47
2019-04-25T09:14:03.706Z,9.87
2019-04-25T09:16:36.577Z,10.20
2019-04-25T09:19:08.175Z,9.93
2019-04-25T09:21:41.698Z,10.57
2019-04-25T09:24:10.935Z,10.47
2019-04-25T09:26:42.179Z,10.60
2019-04-25T09:29:18.893Z,10.60
2019-04-25T09:31:47.131Z,11.50
2019-04-25T09:34:18.403Z,9.90
2019-04-25T09:36:49.711Z,9.77
2019-04-25T09:39:37.063Z,10.50
2019-04-25T09:42:08.444Z,9.93
2019-04-25T09:44:57.392Z,10.03
2019-04-25T09:47:27.999Z,11.23
2019-04-25T09:50:00.058Z,10.10
2019-04-25T09:52:31.379Z,11.07
2019-04-25T09:55:30.855Z,10.60
2019-04-25T09:58:30.603Z,10.33
2019-04-25T10:01:07.050Z,10.57
2019-04-25T10:03:38.696Z,12.03
2019-04-25T10:06:09.943Z,10.10
2019-04-25T10:08:41.339Z,10.47
2019-04-25T10:11:12.734Z,11.27
2019-04-25T10:13:48.527Z,10.53
2019-04-25T10:16:19.844Z,10.53
2019-04-25T10:18:51.131Z,10.40
2019-04-25T10:21:22.149Z,12.37
2019-04-25T10:23:53.497Z,10.30
2019-04-25T10:26:25.683Z,12.07
2019-04-25T10:28:57.150Z,11.13
2019-04-25T10:31:28.487Z,11.43
2019-04-25T10:33:59.894Z,10.60
2019-04-25T10:36:31.603Z,10.30
2019-04-25T10:39:10.233Z,9.67
2019-04-25T10:41:39.715Z,10.23
2019-04-25T10:44:10.000Z,9.60
2019-04-25T10:46:41.757Z,11.13
2019-04-25T10:49:14.485Z,10.40
2019-04-25T10:51:47.963Z,11.50
2019-04-25T10:54:22.670Z,10.00
2019-04-25T10:56:53.952Z,9.50
2019-04-25T10:59:25.260Z,9.27
2019-04-25T11:01:55.976Z,9.13
2019-04-25T11:04:35.899Z,9.23
2019-04-25T11:07:07.359Z,10.17
2019-04-25T11:09:38.750Z,10.70
2019-04-25T11:12:12.927Z,9.90
2019-04-25T11:14:44.484Z,11.63
2019-04-25T11:17:15.463Z,9.90
2019-04-25T11:19:46.884Z,10.80
2019-04-25T11:22:18.244Z,10.17
2019-04-25T11:24:49.560Z,11.17
2019-04-25T11:27:20.243Z,10.70
2019-04-25T11:29:51.515Z,10.03
2019-04-25T11:32:24.936Z,10.13
2019-04-25T11:34:57.275Z,11.33
2019-04-25T11:37:30.608Z,10.93
2019-04-25T11:40:08.030Z,10.67
2019-04-25T11:42:38.719Z,10.80
2019-04-25T11:45:11.507Z,9.17
2019-04-25T11:47:45.820Z,10.07
2019-04-25T11:50:15.251Z,10.10
2019-04-25T11:52:47.038Z,11.03
2019-04-25T11:55:19.076Z,11.40
2019-04-25T11:57:51.389Z,10.33
2019-04-25T12:00:27.263Z,9.67
2019-04-25T12:02:58.751Z,9.80
2019-04-25T12:05:30.038Z,9.40
2019-04-25T12:08:00.671Z,9.13
2019-04-25T12:10:34.594Z,9.87
2019-04-25T12:13:06.798Z,9.23
2019-04-25T12:15:38.255Z,8.87
2019-04-25T12:18:09.527Z,9.37
2019-04-25T12:20:41.200Z,10.47
2019-04-25T12:23:14.292Z,11.77
2019-04-25T12:25:46.321Z,9.43
2019-04-25T12:28:17.982Z,9.43
2019-04-25T12:30:49.306Z,9.20
2019-04-25T12:33:21.587Z,8.90
2019-04-25T12:35:54.179Z,8.60
2019-04-25T12:38:25.927Z,7.80
2019-04-25T12:40:57.600Z,7.80
2019-04-25T12:43:30.454Z,9.33
2019-04-25T12:46:08.098Z,9.27
2019-04-25T12:48:39.575Z,9.00
2019-04-25T12:51:10.911Z,8.20
2019-04-25T12:53:43.770Z,8.80
2019-04-25T12:56:15.256Z,9.90
2019-04-25T12:58:47.865Z,9.40
2019-04-25T13:01:19.243Z,8.10
2019-04-25T13:03:50.927Z,8.03
2019-04-25T13:06:23.859Z,7.83
2019-04-25T13:08:55.339Z,7.40
2019-04-25T13:11:26.627Z,6.87
2019-04-25T13:13:59.012Z,6.90
2019-04-25T13:16:30.500Z,10.70
2019-04-25T13:19:13.438Z,7.03
2019-04-25T13:21:34.692Z,6.87
2019-04-25T13:24:07.191Z,8.03
2019-04-25T13:26:44.903Z,7.47
2019-04-25T13:29:28.784Z,7.17
2019-04-25T13:32:21.905Z,7.60
2019-04-25T13:34:53.833Z,7.60
2019-04-25T13:37:25.196Z,7.17
2019-04-25T13:39:55.958Z,8.50
2019-04-25T13:42:27.116Z,8.17
2019-04-25T13:44:58.496Z,9.40
2019-04-25T13:47:30.344Z,8.27
2019-04-25T13:50:02.083Z,7.90
2019-04-25T13:52:36.197Z,8.10
2019-04-25T13:55:07.970Z,7.13
2019-04-25T13:57:39.443Z,8.60
2019-04-25T14:00:11.728Z,7.53
2019-04-25T14:02:43.421Z,10.03
2019-04-25T14:05:14.711Z,8.23
2019-04-25T14:07:45.159Z,7.67
2019-04-25T14:10:16.439Z,8.17
2019-04-25T14:12:47.791Z,8.60
2019-04-25T14:15:21.861Z,7.00
2019-04-25T14:18:09.967Z,7.47
2019-04-25T14:20:44.800Z,12.27
2019-04-25T14:23:15.796Z,7.73
2019-04-25T14:25:46.955Z,7.57
2019-04-25T14:28:18.439Z,8.07
2019-04-25T14:30:49.760Z,9.03
2019-04-25T14:33:22.378Z,7.10
2019-04-25T14:35:54.897Z,8.80
2019-04-25T14:38:26.600Z,7.93
2019-04-25T14:40:57.986Z,7.43
2019-04-25T14:43:29.299Z,8.13
2019-04-25T14:46:01.494Z,7.77
2019-04-25T14:48:32.219Z,7.33
2019-04-25T14:51:03.635Z,7.37
2019-04-25T14:53:35.249Z,7.10
2019-04-25T14:56:21.483Z,10.60
2019-04-25T14:58:55.383Z,8.17
2019-04-25T15:01:27.988Z,9.50
2019-04-25T15:04:01.955Z,8.97
2019-04-25T15:06:32.782Z,8.10
2019-04-25T15:09:12.742Z,7.93
2019-04-25T15:11:43.733Z,7.23
2019-04-25T15:14:14.784Z,6.93
2019-04-25T15:16:46.916Z,11.73
2019-04-25T15:19:20.040Z,7.77
2019-04-25T15:21:51.457Z,7.37
2019-04-25T15:24:23.008Z,7.27
2019-04-25T15:26:55.076Z,7.90
2019-04-25T15:29:26.564Z,8.37
2019-04-25T15:31:58.375Z,8.60
2019-04-25T15:34:35.978Z,8.15
2019-04-25T15:37:35.324Z,7.50
2019-04-25T15:40:29.963Z,8.53
2019-04-25T15:43:27.653Z,8.35
2019-04-25T15:46:18.191Z,7.78
2019-04-25T15:48:49.920Z,7.25
2019-04-25T15:51:21.571Z,8.18
2019-04-25T15:53:52.915Z,7.92
2019-04-25T15:56:24.435Z,8.43
2019-04-25T15:58:56.103Z,8.00
2019-04-25T16:01:28.326Z,8.83
2019-04-25T16:03:59.993Z,9.05
2019-04-25T16:06:33.832Z,8.53
2019-04-25T16:09:06.996Z,8.60
2019-04-25T16:11:40.181Z,8.95
2019-04-25T16:14:13.894Z,9.18
2019-04-25T16:16:47.807Z,9.35
2019-04-25T16:19:19.734Z,8.80
2019-04-25T16:21:51.591Z,10.85
2019-04-25T16:24:23.187Z,8.00
2019-04-25T16:26:54.807Z,8.60
2019-04-25T16:29:27.666Z,8.33
2019-04-25T16:32:05.279Z,8.05
2019-04-25T16:34:37.739Z,8.15
2019-04-25T16:37:09.411Z,8.70
2019-04-25T16:39:42.688Z,7.80
2019-04-25T16:42:13.619Z,8.48
2019-04-25T16:44:45.065Z,8.58
2019-04-25T16:47:18.659Z,8.80
2019-04-25T16:49:50.304Z,7.62
2019-04-25T16:52:22.043Z,8.13
2019-04-25T16:54:53.775Z,8.13
2019-04-25T16:57:25.479Z,9.05
2019-04-25T16:59:57.133Z,8.45
2019-04-25T17:02:35.509Z,8.78
2019-04-25T17:05:07.365Z,10.00
2019-04-25T17:07:38.496Z,10.70
2019-04-25T17:10:10.547Z,9.65
2019-04-25T17:12:42.108Z,9.50
2019-04-25T17:15:26.027Z,9.45
2019-04-25T17:18:16.867Z,9.75
2019-04-25T17:20:57.667Z,9.45
2019-04-25T17:23:30.073Z,14.30
2019-04-25T17:26:03.283Z,11.28
2019-04-25T17:28:37.100Z,12.75
2019-04-25T17:31:21.920Z,13.72
2019-04-25T17:33:59.987Z,18.77
2019-04-25T17:36:40.791Z,12.05
2019-04-25T17:39:33.754Z,17.73
2019-04-25T17:42:05.276Z,46.05
2019-04-25T17:44:36.513Z,21.02
2019-04-25T17:47:07.926Z,12.65
2019-04-25T17:49:39.512Z,13.88
2019-04-25T17:52:11.107Z,12.68
2019-04-25T17:54:43.100Z,11.63
2019-04-25T17:57:14.805Z,12.30
2019-04-25T17:59:46.572Z,12.47
2019-04-25T18:02:17.812Z,13.95
2019-04-25T18:04:48.871Z,13.35
2019-04-25T18:07:20.866Z,11.93
2019-04-25T18:09:52.856Z,12.40
2019-04-25T18:12:24.039Z,11.90
2019-04-25T18:14:55.746Z,12.50
2019-04-25T18:17:27.699Z,13.48
2019-04-25T18:20:04.352Z,12.98
2019-04-25T18:22:57.306Z,16.10
2019-04-25T18:25:51.027Z,17.37
2019-04-25T18:28:31.134Z,16.70
2019-04-25T18:31:03.035Z,14.38
2019-04-25T18:33:34.905Z,14.80
2019-04-25T18:36:21.714Z,14.78
2019-04-25T18:39:19.195Z,13.70
2019-04-25T18:42:03.559Z,14.78
2019-04-25T18:44:35.621Z,15.03
2019-04-25T18:47:08.860Z,14.65
2019-04-25T18:49:40.620Z,15.20
2019-04-25T18:52:21.645Z,14.00
2019-04-25T18:54:59.280Z,15.13
2019-04-25T18:57:37.405Z,15.78
2019-04-25T19:00:31.742Z,15.40
2019-04-25T19:03:23.368Z,17.67
2019-04-25T19:05:58.219Z,18.20
2019-04-25T19:08:29.392Z,18.10
2019-04-25T19:11:01.199Z,19.60
2019-04-25T19:13:33.028Z,17.60
2019-04-25T19:16:04.100Z,19.42
2019-04-25T19:18:35.195Z,20.57
2019-04-25T19:21:06.707Z,26.60
2019-04-25T19:23:37.678Z,25.20
2019-04-25T19:26:09.037Z,24.10
2019-04-25T19:28:41.032Z,22.82
2019-04-25T19:31:12.183Z,19.47
2019-04-25T19:33:43.911Z,21.15
2019-04-25T19:36:15.074Z,21.67
2019-04-25T19:38:46.328Z,20.92
2019-04-25T19:41:26.170Z,20.23
2019-04-25T19:44:24.976Z,20.48
2019-04-25T19:46:55.882Z,17.82
2019-04-25T19:49:26.638Z,18.20
2019-04-25T19:51:58.534Z,17.40
2019-04-25T19:54:29.623Z,18.23
2019-04-25T19:57:00.615Z,21.00
2019-04-25T19:59:31.703Z,25.40
2019-04-25T20:02:07.344Z,27.90
2019-04-25T20:04:49.522Z,31.10
2019-04-25T20:07:45.482Z,32.50
2019-04-25T20:10:33.569Z,30.93
2019-04-25T20:13:04.403Z,29.30
2019-04-25T20:15:35.467Z,24.57
2019-04-25T20:18:06.567Z,19.93
2019-04-25T20:20:37.676Z,19.43
2019-04-25T20:23:08.683Z,19.53
2019-04-25T20:25:39.043Z,19.70
2019-04-25T20:28:10.347Z,18.30
2019-04-25T20:30:41.257Z,19.70
2019-04-25T20:33:11.728Z,18.27
2019-04-25T20:35:41.939Z,19.80
2019-04-25T20:38:12.082Z,18.43
2019-04-25T20:40:42.659Z,19.23
2019-04-25T20:43:13.535Z,19.73
2019-04-25T20:45:45.791Z,19.90
2019-04-25T20:48:17.323Z,19.03
2019-04-25T20:50:48.287Z,19.23
2019-04-25T20:53:18.534Z,19.23
2019-04-25T20:55:51.373Z,20.27
2019-04-25T20:58:42.157Z,20.40
2019-04-25T21:01:15.551Z,20.73
2019-04-25T21:03:49.852Z,21.60
2019-04-25T21:06:33.280Z,20.93
2019-04-25T21:09:06.028Z,21.73
2019-04-25T21:11:38.699Z,20.40
2019-04-25T21:14:30.939Z,21.20
2019-04-25T21:17:05.115Z,22.10
2019-04-25T21:19:38.405Z,21.93
2019-04-25T21:22:09.268Z,22.33
2019-04-25T21:24:40.372Z,22.93
2019-04-25T21:27:10.741Z,23.63
2019-04-25T21:29:40.903Z,24.30
2019-04-25T21:32:13.266Z,22.50
2019-04-25T21:34:44.281Z,22.27
2019-04-25T21:37:14.939Z,22.50
2019-04-25T21:40:00.800Z,23.97
2019-04-25T21:42:44.220Z,25.43
2019-04-25T21:45:16.396Z,24.80
2019-04-25T21:47:47.604Z,25.37
2019-04-25T21:50:18.823Z,26.43
2019-04-25T21:52:50.035Z,25.87
2019-04-25T21:55:20.691Z,25.63
2019-04-25T21:57:51.738Z,25.67
2019-04-25T22:00:45.067Z,24.23
2019-04-25T22:03:18.533Z,24.30
2019-04-25T22:05:49.815Z,25.77
2019-04-25T22:08:20.921Z,26.20
2019-04-25T22:10:51.991Z,25.07
2019-04-25T22:13:23.219Z,27.60
2019-04-25T22:15:55.096Z,27.17
2019-04-25T22:18:27.187Z,26.53
2019-04-25T22:20:58.353Z,26.17
2019-04-25T22:23:29.991Z,26.43
2019-04-25T22:26:01.367Z,24.73
2019-04-25T22:28:32.781Z,25.77
2019-04-25T22:31:07.624Z,26.53
2019-04-25T22:34:00.673Z,25.50
2019-04-25T22:36:32.719Z,25.23
2019-04-25T22:39:12.504Z,24.63
2019-04-25T22:41:46.845Z,25.67
2019-04-25T22:44:20.767Z,25.50
2019-04-25T22:46:52.775Z,25.50
2019-04-25T22:49:23.811Z,25.90
2019-04-25T22:51:54.963Z,25.73
2019-04-25T22:54:27.414Z,26.63
2019-04-25T22:56:58.495Z,25.40
2019-04-25T22:59:29.783Z,25.93
2019-04-25T23:02:26.088Z,24.67
2019-04-25T23:05:34.419Z,25.47
2019-04-25T23:08:06.013Z,25.07
2019-04-25T23:10:36.428Z,24.80
2019-04-25T23:13:07.305Z,25.87
2019-04-25T23:15:38.323Z,24.87
2019-04-25T23:18:09.996Z,25.17
2019-04-25T23:20:40.451Z,23.83
2019-04-25T23:23:11.727Z,23.30
2019-04-25T23:25:58.311Z,25.20
2019-04-25T23:28:32.750Z,24.33
2019-04-25T23:31:20.191Z,24.10
2019-04-25T23:33:51.200Z,25.33
2019-04-25T23:36:22.507Z,24.67
2019-04-25T23:38:53.564Z,24.00
2019-04-25T23:41:24.867Z,23.83
2019-04-25T23:43:56.310Z,24.63
2019-04-25T23:46:27.211Z,25.37
2019-04-25T23:48:58.243Z,24.93
2019-04-25T23:51:29.251Z,25.50
2019-04-25T23:54:00.886Z,24.67
2019-04-25T23:56:31.875Z,25.23
2019-04-25T23:59:03.822Z,26.83
